sensor_id;sensor_type;location;lat;lon;timestamp;temperature;humidity
29353;DHT22;16344;50.364;8.944;2024-03-07T00:00:43;6.20;99.90
29353;DHT22;16344;50.364;8.944;2024-03-07T00:03:08;6.20;99.90
29353;DHT22;16344;50.364;8.944;2024-03-07T00:05:34;6.20;99.90
29353;DHT22;16344;50.364;8.944;2024-03-07T00:07:59;6.20;99.90
29353;DHT22;16344;50.364;8.944;2024-03-07T00:10:25;6.30;99.90
29353;DHT22;16344;50.364;8.944;2024-03-07T00:12:51;6.20;99.90
29353;DHT22;16344;50.364;8.944;2024-03-07T00:15:16;6.10;99.90
29353;DHT22;16344;50.364;8.944;2024-03-07T00:17:43;6.00;99.90
29353;DHT22;16344;50.364;8.944;2024-03-07T00:20:09;6.00;99.90
29353;DHT22;16344;50.364;8.944;2024-03-07T00:22:39;5.90;99.90
29353;DHT22;16344;50.364;8.944;2024-03-07T00:25:05;5.90;99.90
29353;DHT22;16344;50.364;8.944;2024-03-07T00:27:32;5.90;99.90
29353;DHT22;16344;50.364;8.944;2024-03-07T00:29:59;5.90;99.90
29353;DHT22;16344;50.364;8.944;2024-03-07T00:32:25;5.90;99.90
29353;DHT22;16344;50.364;8.944;2024-03-07T00:34:52;5.90;99.90
29353;DHT22;16344;50.364;8.944;2024-03-07T00:37:18;6.00;99.90
29353;DHT22;16344;50.364;8.944;2024-03-07T00:39:44;6.00;99.90
29353;DHT22;16344;50.364;8.944;2024-03-07T00:42:09;6.00;99.90
29353;DHT22;16344;50.364;8.944;2024-03-07T00:44:35;6.10;99.90
29353;DHT22;16344;50.364;8.944;2024-03-07T00:47:01;6.10;99.90
29353;DHT22;16344;50.364;8.944;2024-03-07T00:49:30;6.10;99.90
29353;DHT22;16344;50.364;8.944;2024-03-07T00:51:56;6.10;99.90
29353;DHT22;16344;50.364;8.944;2024-03-07T00:54:21;6.00;99.90
29353;DHT22;16344;50.364;8.944;2024-03-07T00:56:48;6.10;99.90
29353;DHT22;16344;50.364;8.944;2024-03-07T00:59:16;6.10;99.90
29353;DHT22;16344;50.364;8.944;2024-03-07T01:01:42;6.10;99.90
29353;DHT22;16344;50.364;8.944;2024-03-07T01:04:08;6.10;99.90
29353;DHT22;16344;50.364;8.944;2024-03-07T01:06:34;6.10;99.90
29353;DHT22;16344;50.364;8.944;2024-03-07T01:09:01;6.10;99.90
29353;DHT22;16344;50.364;8.944;2024-03-07T01:11:27;6.00;99.90
29353;DHT22;16344;50.364;8.944;2024-03-07T01:13:53;6.00;99.90
29353;DHT22;16344;50.364;8.944;2024-03-07T01:16:19;6.00;99.90
29353;DHT22;16344;50.364;8.944;2024-03-07T01:18:44;6.00;99.90
29353;DHT22;16344;50.364;8.944;2024-03-07T01:21:10;6.10;99.90
29353;DHT22;16344;50.364;8.944;2024-03-07T01:23:35;6.00;99.90
29353;DHT22;16344;50.364;8.944;2024-03-07T01:26:01;5.90;99.90
29353;DHT22;16344;50.364;8.944;2024-03-07T01:28:28;5.90;99.90
29353;DHT22;16344;50.364;8.944;2024-03-07T01:30:56;5.80;99.90
29353;DHT22;16344;50.364;8.944;2024-03-07T01:33:23;5.80;99.90
29353;DHT22;16344;50.364;8.944;2024-03-07T01:35:48;5.80;99.90
29353;DHT22;16344;50.364;8.944;2024-03-07T01:38:15;5.60;99.90
29353;DHT22;16344;50.364;8.944;2024-03-07T01:40:41;5.60;99.90
29353;DHT22;16344;50.364;8.944;2024-03-07T01:43:08;5.70;99.90
29353;DHT22;16344;50.364;8.944;2024-03-07T01:45:33;5.70;99.90
29353;DHT22;16344;50.364;8.944;2024-03-07T01:48:05;5.80;99.90
29353;DHT22;16344;50.364;8.944;2024-03-07T01:50:33;5.70;99.90
29353;DHT22;16344;50.364;8.944;2024-03-07T01:52:59;5.80;99.90
29353;DHT22;16344;50.364;8.944;2024-03-07T01:55:26;5.70;99.90
29353;DHT22;16344;50.364;8.944;2024-03-07T01:57:52;5.70;99.90
29353;DHT22;16344;50.364;8.944;2024-03-07T02:00:20;5.50;99.90
29353;DHT22;16344;50.364;8.944;2024-03-07T02:02:45;5.50;99.90
29353;DHT22;16344;50.364;8.944;2024-03-07T02:05:11;5.50;99.90
29353;DHT22;16344;50.364;8.944;2024-03-07T02:07:38;5.50;99.90
29353;DHT22;16344;50.364;8.944;2024-03-07T02:10:05;5.50;99.90
29353;DHT22;16344;50.364;8.944;2024-03-07T02:12:31;5.50;99.90
29353;DHT22;16344;50.364;8.944;2024-03-07T02:14:57;5.50;99.90
29353;DHT22;16344;50.364;8.944;2024-03-07T02:17:24;5.40;99.90
29353;DHT22;16344;50.364;8.944;2024-03-07T02:19:50;5.40;99.90
29353;DHT22;16344;50.364;8.944;2024-03-07T02:22:16;5.40;99.90
29353;DHT22;16344;50.364;8.944;2024-03-07T02:24:41;5.40;99.90
29353;DHT22;16344;50.364;8.944;2024-03-07T02:27:07;5.30;99.90
29353;DHT22;16344;50.364;8.944;2024-03-07T02:29:34;5.30;99.90
29353;DHT22;16344;50.364;8.944;2024-03-07T02:32:01;5.20;99.90
29353;DHT22;16344;50.364;8.944;2024-03-07T02:34:27;5.10;99.90
29353;DHT22;16344;50.364;8.944;2024-03-07T02:36:52;5.30;99.90
29353;DHT22;16344;50.364;8.944;2024-03-07T02:39:18;5.30;99.90
29353;DHT22;16344;50.364;8.944;2024-03-07T02:41:44;5.40;99.90
29353;DHT22;16344;50.364;8.944;2024-03-07T02:44:09;5.30;99.90
29353;DHT22;16344;50.364;8.944;2024-03-07T02:46:35;5.30;99.90
29353;DHT22;16344;50.364;8.944;2024-03-07T02:49:00;5.30;99.90
29353;DHT22;16344;50.364;8.944;2024-03-07T02:51:26;5.20;99.90
29353;DHT22;16344;50.364;8.944;2024-03-07T02:53:51;5.30;99.90
29353;DHT22;16344;50.364;8.944;2024-03-07T02:56:17;5.20;99.90
29353;DHT22;16344;50.364;8.944;2024-03-07T02:58:43;5.20;99.90
29353;DHT22;16344;50.364;8.944;2024-03-07T03:01:08;5.20;99.90
29353;DHT22;16344;50.364;8.944;2024-03-07T03:03:35;5.10;99.90
29353;DHT22;16344;50.364;8.944;2024-03-07T03:06:01;5.00;99.90
29353;DHT22;16344;50.364;8.944;2024-03-07T03:08:27;5.00;99.90
29353;DHT22;16344;50.364;8.944;2024-03-07T03:10:56;4.90;99.90
29353;DHT22;16344;50.364;8.944;2024-03-07T03:13:23;5.00;99.90
29353;DHT22;16344;50.364;8.944;2024-03-07T03:15:48;5.10;99.90
29353;DHT22;16344;50.364;8.944;2024-03-07T03:18:14;5.10;99.90
29353;DHT22;16344;50.364;8.944;2024-03-07T03:20:40;5.00;99.90
29353;DHT22;16344;50.364;8.944;2024-03-07T03:23:07;5.10;99.90
29353;DHT22;16344;50.364;8.944;2024-03-07T03:25:36;5.00;99.90
29353;DHT22;16344;50.364;8.944;2024-03-07T03:28:04;5.00;99.90
29353;DHT22;16344;50.364;8.944;2024-03-07T03:30:30;5.00;99.90
29353;DHT22;16344;50.364;8.944;2024-03-07T03:32:55;5.00;99.90
29353;DHT22;16344;50.364;8.944;2024-03-07T03:35:21;5.00;99.90
29353;DHT22;16344;50.364;8.944;2024-03-07T03:37:46;4.90;99.90
29353;DHT22;16344;50.364;8.944;2024-03-07T03:40:12;4.90;99.90
29353;DHT22;16344;50.364;8.944;2024-03-07T03:42:42;5.00;99.90
29353;DHT22;16344;50.364;8.944;2024-03-07T03:45:09;5.00;99.90
29353;DHT22;16344;50.364;8.944;2024-03-07T03:47:40;4.90;99.90
29353;DHT22;16344;50.364;8.944;2024-03-07T03:50:07;4.90;99.90
29353;DHT22;16344;50.364;8.944;2024-03-07T03:52:33;4.90;99.90
29353;DHT22;16344;50.364;8.944;2024-03-07T03:55:01;4.80;99.90
29353;DHT22;16344;50.364;8.944;2024-03-07T03:57:27;4.70;99.90
29353;DHT22;16344;50.364;8.944;2024-03-07T03:59:53;4.80;99.90
29353;DHT22;16344;50.364;8.944;2024-03-07T04:02:20;4.70;99.90
29353;DHT22;16344;50.364;8.944;2024-03-07T04:04:46;4.70;99.90
29353;DHT22;16344;50.364;8.944;2024-03-07T04:07:12;4.60;99.90
29353;DHT22;16344;50.364;8.944;2024-03-07T04:09:38;4.50;99.90
29353;DHT22;16344;50.364;8.944;2024-03-07T04:12:04;4.40;99.90
29353;DHT22;16344;50.364;8.944;2024-03-07T04:14:30;4.40;99.90
29353;DHT22;16344;50.364;8.944;2024-03-07T04:16:58;4.30;99.90
29353;DHT22;16344;50.364;8.944;2024-03-07T04:19:24;4.40;99.90
29353;DHT22;16344;50.364;8.944;2024-03-07T04:21:50;4.40;99.90
29353;DHT22;16344;50.364;8.944;2024-03-07T04:24:17;4.30;99.90
29353;DHT22;16344;50.364;8.944;2024-03-07T04:26:42;4.30;99.90
29353;DHT22;16344;50.364;8.944;2024-03-07T04:29:08;4.30;99.90
29353;DHT22;16344;50.364;8.944;2024-03-07T04:31:36;4.40;99.90
29353;DHT22;16344;50.364;8.944;2024-03-07T04:34:02;4.30;99.90
29353;DHT22;16344;50.364;8.944;2024-03-07T04:36:27;4.30;99.90
29353;DHT22;16344;50.364;8.944;2024-03-07T04:38:54;4.40;99.90
29353;DHT22;16344;50.364;8.944;2024-03-07T04:41:20;4.40;99.90
29353;DHT22;16344;50.364;8.944;2024-03-07T04:43:46;4.40;99.90
29353;DHT22;16344;50.364;8.944;2024-03-07T04:46:12;4.50;99.90
29353;DHT22;16344;50.364;8.944;2024-03-07T04:48:37;4.40;99.90
29353;DHT22;16344;50.364;8.944;2024-03-07T04:51:03;4.50;99.90
29353;DHT22;16344;50.364;8.944;2024-03-07T04:53:29;4.50;99.90
29353;DHT22;16344;50.364;8.944;2024-03-07T04:55:54;4.50;99.90
29353;DHT22;16344;50.364;8.944;2024-03-07T04:58:21;4.60;99.90
29353;DHT22;16344;50.364;8.944;2024-03-07T05:00:46;4.60;99.90
29353;DHT22;16344;50.364;8.944;2024-03-07T05:03:12;4.60;99.90
29353;DHT22;16344;50.364;8.944;2024-03-07T05:05:37;4.50;99.90
29353;DHT22;16344;50.364;8.944;2024-03-07T05:08:03;4.50;99.90
29353;DHT22;16344;50.364;8.944;2024-03-07T05:10:29;4.40;99.90
29353;DHT22;16344;50.364;8.944;2024-03-07T05:12:56;4.40;99.90
29353;DHT22;16344;50.364;8.944;2024-03-07T05:15:24;4.40;99.90
29353;DHT22;16344;50.364;8.944;2024-03-07T05:17:51;4.30;99.90
29353;DHT22;16344;50.364;8.944;2024-03-07T05:20:17;4.40;99.90
29353;DHT22;16344;50.364;8.944;2024-03-07T05:22:43;4.50;99.90
29353;DHT22;16344;50.364;8.944;2024-03-07T05:25:17;4.50;99.90
29353;DHT22;16344;50.364;8.944;2024-03-07T05:27:44;4.50;99.90
29353;DHT22;16344;50.364;8.944;2024-03-07T05:30:10;4.50;99.90
29353;DHT22;16344;50.364;8.944;2024-03-07T05:32:37;4.60;99.90
29353;DHT22;16344;50.364;8.944;2024-03-07T05:35:03;4.70;99.90
29353;DHT22;16344;50.364;8.944;2024-03-07T05:37:29;4.70;99.90
29353;DHT22;16344;50.364;8.944;2024-03-07T05:39:54;4.70;99.90
29353;DHT22;16344;50.364;8.944;2024-03-07T05:42:20;4.70;99.90
29353;DHT22;16344;50.364;8.944;2024-03-07T05:44:46;4.70;99.90
29353;DHT22;16344;50.364;8.944;2024-03-07T05:47:11;4.70;99.90
29353;DHT22;16344;50.364;8.944;2024-03-07T05:49:39;4.80;99.90
29353;DHT22;16344;50.364;8.944;2024-03-07T05:52:05;4.70;99.90
29353;DHT22;16344;50.364;8.944;2024-03-07T05:54:31;4.60;99.90
29353;DHT22;16344;50.364;8.944;2024-03-07T05:56:57;4.60;99.90
29353;DHT22;16344;50.364;8.944;2024-03-07T05:59:22;4.60;99.90
29353;DHT22;16344;50.364;8.944;2024-03-07T06:01:49;4.60;99.90
29353;DHT22;16344;50.364;8.944;2024-03-07T06:04:16;4.70;99.90
29353;DHT22;16344;50.364;8.944;2024-03-07T06:06:41;4.70;99.90
29353;DHT22;16344;50.364;8.944;2024-03-07T06:09:09;4.80;99.90
29353;DHT22;16344;50.364;8.944;2024-03-07T06:11:36;4.70;99.90
29353;DHT22;16344;50.364;8.944;2024-03-07T06:14:05;4.70;99.90
29353;DHT22;16344;50.364;8.944;2024-03-07T06:16:32;4.70;99.90
29353;DHT22;16344;50.364;8.944;2024-03-07T06:19:02;4.70;99.90
29353;DHT22;16344;50.364;8.944;2024-03-07T06:21:28;4.70;99.90
29353;DHT22;16344;50.364;8.944;2024-03-07T06:23:56;4.70;99.90
29353;DHT22;16344;50.364;8.944;2024-03-07T06:26:35;4.90;99.90
29353;DHT22;16344;50.364;8.944;2024-03-07T06:29:14;5.00;99.90
29353;DHT22;16344;50.364;8.944;2024-03-07T06:31:41;5.00;99.90
29353;DHT22;16344;50.364;8.944;2024-03-07T06:34:07;5.20;99.90
29353;DHT22;16344;50.364;8.944;2024-03-07T06:36:34;5.30;99.90
29353;DHT22;16344;50.364;8.944;2024-03-07T06:38:59;5.40;99.90
29353;DHT22;16344;50.364;8.944;2024-03-07T06:41:25;5.40;99.90
29353;DHT22;16344;50.364;8.944;2024-03-07T06:43:50;5.40;99.90
29353;DHT22;16344;50.364;8.944;2024-03-07T06:46:16;5.30;99.90
29353;DHT22;16344;50.364;8.944;2024-03-07T06:48:45;5.20;99.90
29353;DHT22;16344;50.364;8.944;2024-03-07T06:51:11;5.20;99.90
29353;DHT22;16344;50.364;8.944;2024-03-07T06:53:36;5.70;99.90
29353;DHT22;16344;50.364;8.944;2024-03-07T06:56:02;6.40;99.90
29353;DHT22;16344;50.364;8.944;2024-03-07T06:58:28;7.20;5.80
29353;DHT22;16344;50.364;8.944;2024-03-07T07:00:54;7.90;1.00
29353;DHT22;16344;50.364;8.944;2024-03-07T07:03:20;8.50;1.00
29353;DHT22;16344;50.364;8.944;2024-03-07T07:05:46;8.70;1.00
29353;DHT22;16344;50.364;8.944;2024-03-07T07:08:12;9.10;1.00
29353;DHT22;16344;50.364;8.944;2024-03-07T07:10:39;9.10;1.00
29353;DHT22;16344;50.364;8.944;2024-03-07T07:13:06;8.50;1.00
29353;DHT22;16344;50.364;8.944;2024-03-07T07:15:31;7.80;1.00
29353;DHT22;16344;50.364;8.944;2024-03-07T07:17:57;7.30;1.00
29353;DHT22;16344;50.364;8.944;2024-03-07T07:20:23;7.00;1.00
29353;DHT22;16344;50.364;8.944;2024-03-07T07:22:49;6.60;1.00
29353;DHT22;16344;50.364;8.944;2024-03-07T07:25:16;6.50;1.00
29353;DHT22;16344;50.364;8.944;2024-03-07T07:27:44;6.40;1.00
29353;DHT22;16344;50.364;8.944;2024-03-07T07:30:12;6.10;9.70
29353;DHT22;16344;50.364;8.944;2024-03-07T07:32:38;6.00;54.00
29353;DHT22;16344;50.364;8.944;2024-03-07T07:35:05;5.90;91.00
29353;DHT22;16344;50.364;8.944;2024-03-07T07:37:39;5.90;79.30
29353;DHT22;16344;50.364;8.944;2024-03-07T07:40:10;5.80;95.20
29353;DHT22;16344;50.364;8.944;2024-03-07T07:42:39;5.80;99.90
29353;DHT22;16344;50.364;8.944;2024-03-07T07:45:11;5.70;99.90
29353;DHT22;16344;50.364;8.944;2024-03-07T07:47:44;5.80;99.90
29353;DHT22;16344;50.364;8.944;2024-03-07T07:50:14;5.80;99.90
29353;DHT22;16344;50.364;8.944;2024-03-07T07:52:44;5.80;99.90
29353;DHT22;16344;50.364;8.944;2024-03-07T07:55:10;5.80;99.90
29353;DHT22;16344;50.364;8.944;2024-03-07T07:57:44;5.90;99.90
29353;DHT22;16344;50.364;8.944;2024-03-07T08:00:17;5.90;99.90
29353;DHT22;16344;50.364;8.944;2024-03-07T08:02:55;6.00;99.90
29353;DHT22;16344;50.364;8.944;2024-03-07T08:05:26;6.00;99.90
29353;DHT22;16344;50.364;8.944;2024-03-07T08:07:54;6.00;99.90
29353;DHT22;16344;50.364;8.944;2024-03-07T08:10:20;6.10;99.90
29353;DHT22;16344;50.364;8.944;2024-03-07T08:12:48;6.10;99.90
29353;DHT22;16344;50.364;8.944;2024-03-07T08:15:14;6.20;99.90
29353;DHT22;16344;50.364;8.944;2024-03-07T08:17:45;6.20;99.90
29353;DHT22;16344;50.364;8.944;2024-03-07T08:20:15;6.30;99.90
29353;DHT22;16344;50.364;8.944;2024-03-07T08:22:41;6.20;99.90
29353;DHT22;16344;50.364;8.944;2024-03-07T08:25:11;6.20;99.90
29353;DHT22;16344;50.364;8.944;2024-03-07T08:27:38;6.30;99.90
29353;DHT22;16344;50.364;8.944;2024-03-07T08:30:05;6.30;99.90
29353;DHT22;16344;50.364;8.944;2024-03-07T08:32:39;6.40;99.90
29353;DHT22;16344;50.364;8.944;2024-03-07T08:35:05;6.40;99.90
29353;DHT22;16344;50.364;8.944;2024-03-07T08:37:38;6.30;99.90
29353;DHT22;16344;50.364;8.944;2024-03-07T08:40:05;6.50;99.90
29353;DHT22;16344;50.364;8.944;2024-03-07T08:42:36;6.30;99.90
29353;DHT22;16344;50.364;8.944;2024-03-07T08:45:03;6.30;99.90
29353;DHT22;16344;50.364;8.944;2024-03-07T08:47:33;6.40;99.90
29353;DHT22;16344;50.364;8.944;2024-03-07T08:50:00;6.20;99.90
29353;DHT22;16344;50.364;8.944;2024-03-07T08:52:26;6.20;99.90
29353;DHT22;16344;50.364;8.944;2024-03-07T08:54:53;6.10;99.90
29353;DHT22;16344;50.364;8.944;2024-03-07T08:57:19;5.90;99.90
29353;DHT22;16344;50.364;8.944;2024-03-07T08:59:46;5.90;99.90
29353;DHT22;16344;50.364;8.944;2024-03-07T09:02:11;5.70;99.90
29353;DHT22;16344;50.364;8.944;2024-03-07T09:04:37;5.50;99.90
29353;DHT22;16344;50.364;8.944;2024-03-07T09:07:04;5.70;99.90
29353;DHT22;16344;50.364;8.944;2024-03-07T09:09:30;5.80;99.90
29353;DHT22;16344;50.364;8.944;2024-03-07T09:11:56;6.00;99.90
29353;DHT22;16344;50.364;8.944;2024-03-07T09:14:21;6.10;99.90
29353;DHT22;16344;50.364;8.944;2024-03-07T09:16:47;6.10;99.90
29353;DHT22;16344;50.364;8.944;2024-03-07T09:19:14;6.10;99.90
29353;DHT22;16344;50.364;8.944;2024-03-07T09:21:45;6.00;99.90
29353;DHT22;16344;50.364;8.944;2024-03-07T09:24:11;5.90;99.90
29353;DHT22;16344;50.364;8.944;2024-03-07T09:26:37;6.10;99.90
29353;DHT22;16344;50.364;8.944;2024-03-07T09:29:02;6.20;99.90
29353;DHT22;16344;50.364;8.944;2024-03-07T09:31:31;6.40;99.90
29353;DHT22;16344;50.364;8.944;2024-03-07T09:33:57;6.50;99.90
29353;DHT22;16344;50.364;8.944;2024-03-07T09:36:26;6.50;99.90
29353;DHT22;16344;50.364;8.944;2024-03-07T09:38:52;6.50;99.90
29353;DHT22;16344;50.364;8.944;2024-03-07T09:41:19;6.40;99.90
29353;DHT22;16344;50.364;8.944;2024-03-07T09:43:51;6.30;99.90
29353;DHT22;16344;50.364;8.944;2024-03-07T09:46:21;6.40;99.90
29353;DHT22;16344;50.364;8.944;2024-03-07T09:48:49;6.50;99.90
29353;DHT22;16344;50.364;8.944;2024-03-07T09:51:22;6.50;99.90
29353;DHT22;16344;50.364;8.944;2024-03-07T09:53:53;6.50;99.90
29353;DHT22;16344;50.364;8.944;2024-03-07T09:56:21;6.50;99.90
29353;DHT22;16344;50.364;8.944;2024-03-07T09:58:51;6.60;99.90
29353;DHT22;16344;50.364;8.944;2024-03-07T10:01:20;6.50;99.90
29353;DHT22;16344;50.364;8.944;2024-03-07T10:03:48;6.60;99.90
29353;DHT22;16344;50.364;8.944;2024-03-07T10:06:15;6.80;99.90
29353;DHT22;16344;50.364;8.944;2024-03-07T10:08:42;6.90;99.90
29353;DHT22;16344;50.364;8.944;2024-03-07T10:11:08;7.10;99.90
29353;DHT22;16344;50.364;8.944;2024-03-07T10:13:34;7.20;99.90
29353;DHT22;16344;50.364;8.944;2024-03-07T10:16:01;7.20;99.90
29353;DHT22;16344;50.364;8.944;2024-03-07T10:18:26;7.20;99.90
29353;DHT22;16344;50.364;8.944;2024-03-07T10:20:55;7.30;99.90
29353;DHT22;16344;50.364;8.944;2024-03-07T10:23:22;7.40;99.90
29353;DHT22;16344;50.364;8.944;2024-03-07T10:25:48;7.40;99.90
29353;DHT22;16344;50.364;8.944;2024-03-07T10:28:19;7.60;99.90
29353;DHT22;16344;50.364;8.944;2024-03-07T10:30:46;7.70;99.90
29353;DHT22;16344;50.364;8.944;2024-03-07T10:33:13;7.70;99.90
29353;DHT22;16344;50.364;8.944;2024-03-07T10:35:39;7.90;99.90
29353;DHT22;16344;50.364;8.944;2024-03-07T10:38:04;7.90;53.80
29353;DHT22;16344;50.364;8.944;2024-03-07T10:40:32;7.80;83.30
29353;DHT22;16344;50.364;8.944;2024-03-07T10:42:58;7.60;99.90
29353;DHT22;16344;50.364;8.944;2024-03-07T10:45:28;7.70;99.90
29353;DHT22;16344;50.364;8.944;2024-03-07T10:47:56;7.90;99.90
29353;DHT22;16344;50.364;8.944;2024-03-07T10:53:34;8.20;57.70
29353;DHT22;16344;50.364;8.944;2024-03-07T10:56:25;8.30;18.10
29353;DHT22;16344;50.364;8.944;2024-03-07T10:59:07;8.30;28.30
29353;DHT22;16344;50.364;8.944;2024-03-07T11:01:39;8.50;26.90
29353;DHT22;16344;50.364;8.944;2024-03-07T11:04:10;8.60;1.00
29353;DHT22;16344;50.364;8.944;2024-03-07T11:06:40;8.60;1.00
29353;DHT22;16344;50.364;8.944;2024-03-07T11:09:07;8.60;1.00
29353;DHT22;16344;50.364;8.944;2024-03-07T11:11:40;8.50;1.00
29353;DHT22;16344;50.364;8.944;2024-03-07T11:14:08;8.60;6.30
29353;DHT22;16344;50.364;8.944;2024-03-07T11:16:38;8.70;1.00
29353;DHT22;16344;50.364;8.944;2024-03-07T11:21:50;8.70;1.00
29353;DHT22;16344;50.364;8.944;2024-03-07T11:24:31;8.70;1.00
29353;DHT22;16344;50.364;8.944;2024-03-07T11:27:04;8.70;1.00
29353;DHT22;16344;50.364;8.944;2024-03-07T11:29:48;8.80;1.00
29353;DHT22;16344;50.364;8.944;2024-03-07T11:32:18;8.80;1.00
29353;DHT22;16344;50.364;8.944;2024-03-07T11:34:47;8.70;1.00
29353;DHT22;16344;50.364;8.944;2024-03-07T11:37:19;8.80;1.00
29353;DHT22;16344;50.364;8.944;2024-03-07T11:39:49;8.90;1.00
29353;DHT22;16344;50.364;8.944;2024-03-07T11:42:27;8.90;1.00
29353;DHT22;16344;50.364;8.944;2024-03-07T11:45:00;8.90;1.00
29353;DHT22;16344;50.364;8.944;2024-03-07T11:47:36;9.00;1.00
29353;DHT22;16344;50.364;8.944;2024-03-07T11:50:04;9.00;1.00
29353;DHT22;16344;50.364;8.944;2024-03-07T11:52:33;9.10;1.00
29353;DHT22;16344;50.364;8.944;2024-03-07T11:55:02;9.20;1.00
29353;DHT22;16344;50.364;8.944;2024-03-07T11:57:31;9.20;1.00
29353;DHT22;16344;50.364;8.944;2024-03-07T12:00:00;9.30;1.00
29353;DHT22;16344;50.364;8.944;2024-03-07T12:02:26;9.40;1.00
29353;DHT22;16344;50.364;8.944;2024-03-07T12:04:52;9.50;1.00
29353;DHT22;16344;50.364;8.944;2024-03-07T12:07:18;9.40;1.00
29353;DHT22;16344;50.364;8.944;2024-03-07T12:09:46;9.50;1.00
29353;DHT22;16344;50.364;8.944;2024-03-07T12:12:16;9.50;1.00
29353;DHT22;16344;50.364;8.944;2024-03-07T12:14:42;9.50;1.00
29353;DHT22;16344;50.364;8.944;2024-03-07T12:17:08;9.40;1.00
29353;DHT22;16344;50.364;8.944;2024-03-07T12:19:34;9.30;1.00
29353;DHT22;16344;50.364;8.944;2024-03-07T12:22:03;9.30;1.00
29353;DHT22;16344;50.364;8.944;2024-03-07T12:24:40;9.30;1.00
29353;DHT22;16344;50.364;8.944;2024-03-07T12:27:11;9.30;13.20
29353;DHT22;16344;50.364;8.944;2024-03-07T12:29:40;9.30;1.00
29353;DHT22;16344;50.364;8.944;2024-03-07T12:32:12;9.30;2.50
29353;DHT22;16344;50.364;8.944;2024-03-07T12:34:39;9.30;1.00
29353;DHT22;16344;50.364;8.944;2024-03-07T12:37:07;9.30;1.00
29353;DHT22;16344;50.364;8.944;2024-03-07T12:39:33;9.40;1.00
29353;DHT22;16344;50.364;8.944;2024-03-07T12:42:12;9.30;1.00
29353;DHT22;16344;50.364;8.944;2024-03-07T12:44:43;9.30;1.00
29353;DHT22;16344;50.364;8.944;2024-03-07T12:47:12;9.10;1.00
29353;DHT22;16344;50.364;8.944;2024-03-07T12:49:38;9.00;1.00
29353;DHT22;16344;50.364;8.944;2024-03-07T12:52:04;9.00;1.00
29353;DHT22;16344;50.364;8.944;2024-03-07T12:54:31;8.90;1.00
29353;DHT22;16344;50.364;8.944;2024-03-07T12:56:56;9.00;1.00
29353;DHT22;16344;50.364;8.944;2024-03-07T12:59:22;9.00;1.00
29353;DHT22;16344;50.364;8.944;2024-03-07T13:01:49;9.10;1.00
29353;DHT22;16344;50.364;8.944;2024-03-07T13:04:15;9.10;1.00
29353;DHT22;16344;50.364;8.944;2024-03-07T13:06:41;9.10;1.00
29353;DHT22;16344;50.364;8.944;2024-03-07T13:09:09;9.00;1.00
29353;DHT22;16344;50.364;8.944;2024-03-07T13:11:38;9.00;1.00
29353;DHT22;16344;50.364;8.944;2024-03-07T13:14:07;9.00;1.00
29353;DHT22;16344;50.364;8.944;2024-03-07T13:16:33;8.90;1.00
29353;DHT22;16344;50.364;8.944;2024-03-07T13:18:59;8.90;1.00
29353;DHT22;16344;50.364;8.944;2024-03-07T13:21:24;8.80;1.00
29353;DHT22;16344;50.364;8.944;2024-03-07T13:23:52;8.80;1.00
29353;DHT22;16344;50.364;8.944;2024-03-07T13:26:22;8.70;1.00
29353;DHT22;16344;50.364;8.944;2024-03-07T13:28:53;8.60;1.00
29353;DHT22;16344;50.364;8.944;2024-03-07T13:31:19;8.60;1.00
29353;DHT22;16344;50.364;8.944;2024-03-07T13:33:45;8.60;1.00
29353;DHT22;16344;50.364;8.944;2024-03-07T13:36:11;8.70;1.00
29353;DHT22;16344;50.364;8.944;2024-03-07T13:38:39;8.60;1.00
29353;DHT22;16344;50.364;8.944;2024-03-07T13:41:05;8.60;1.00
29353;DHT22;16344;50.364;8.944;2024-03-07T13:43:31;8.70;1.00
29353;DHT22;16344;50.364;8.944;2024-03-07T13:45:59;8.70;1.00
29353;DHT22;16344;50.364;8.944;2024-03-07T13:48:24;8.70;1.00
29353;DHT22;16344;50.364;8.944;2024-03-07T13:50:50;8.80;1.00
29353;DHT22;16344;50.364;8.944;2024-03-07T13:53:18;8.70;1.00
29353;DHT22;16344;50.364;8.944;2024-03-07T13:58:36;8.80;1.00
29353;DHT22;16344;50.364;8.944;2024-03-07T14:01:28;8.80;1.00
29353;DHT22;16344;50.364;8.944;2024-03-07T14:04:23;8.80;1.00
29353;DHT22;16344;50.364;8.944;2024-03-07T14:07:25;8.80;1.00
29353;DHT22;16344;50.364;8.944;2024-03-07T14:15:57;8.70;1.00
29353;DHT22;16344;50.364;8.944;2024-03-07T14:21:44;8.80;1.00
29353;DHT22;16344;50.364;8.944;2024-03-07T14:30:05;8.60;1.00
29353;DHT22;16344;50.364;8.944;2024-03-07T14:32:37;8.60;1.00
29353;DHT22;16344;50.364;8.944;2024-03-07T14:38:54;8.70;1.00
29353;DHT22;16344;50.364;8.944;2024-03-07T14:41:39;8.70;1.00
29353;DHT22;16344;50.364;8.944;2024-03-07T14:44:06;8.70;1.00
29353;DHT22;16344;50.364;8.944;2024-03-07T14:46:32;8.80;1.00
29353;DHT22;16344;50.364;8.944;2024-03-07T14:48:59;8.80;1.00
29353;DHT22;16344;50.364;8.944;2024-03-07T14:51:24;8.80;1.00
29353;DHT22;16344;50.364;8.944;2024-03-07T14:53:51;8.80;1.00
29353;DHT22;16344;50.364;8.944;2024-03-07T14:56:17;8.80;1.00
29353;DHT22;16344;50.364;8.944;2024-03-07T14:58:48;8.80;1.00
29353;DHT22;16344;50.364;8.944;2024-03-07T15:01:13;8.90;1.00
29353;DHT22;16344;50.364;8.944;2024-03-07T15:03:39;8.90;1.00
29353;DHT22;16344;50.364;8.944;2024-03-07T15:06:08;8.80;1.00
29353;DHT22;16344;50.364;8.944;2024-03-07T15:08:34;8.80;1.00
29353;DHT22;16344;50.364;8.944;2024-03-07T15:11:11;8.80;1.00
29353;DHT22;16344;50.364;8.944;2024-03-07T15:13:42;8.80;1.00
29353;DHT22;16344;50.364;8.944;2024-03-07T15:16:08;8.80;1.00
29353;DHT22;16344;50.364;8.944;2024-03-07T15:18:34;8.80;1.00
29353;DHT22;16344;50.364;8.944;2024-03-07T15:20:59;8.80;1.00
29353;DHT22;16344;50.364;8.944;2024-03-07T15:23:25;8.80;1.00
29353;DHT22;16344;50.364;8.944;2024-03-07T15:25:50;8.70;1.00
29353;DHT22;16344;50.364;8.944;2024-03-07T15:28:16;8.70;1.00
29353;DHT22;16344;50.364;8.944;2024-03-07T15:30:42;8.70;1.00
29353;DHT22;16344;50.364;8.944;2024-03-07T15:33:08;8.60;1.00
29353;DHT22;16344;50.364;8.944;2024-03-07T15:35:33;8.60;1.00
29353;DHT22;16344;50.364;8.944;2024-03-07T15:38:00;8.60;1.00
29353;DHT22;16344;50.364;8.944;2024-03-07T15:40:26;8.50;1.00
29353;DHT22;16344;50.364;8.944;2024-03-07T15:42:55;8.60;1.00
29353;DHT22;16344;50.364;8.944;2024-03-07T15:45:26;8.50;1.00
29353;DHT22;16344;50.364;8.944;2024-03-07T15:47:52;8.40;1.00
29353;DHT22;16344;50.364;8.944;2024-03-07T15:50:19;8.30;1.00
29353;DHT22;16344;50.364;8.944;2024-03-07T15:52:46;8.40;1.00
29353;DHT22;16344;50.364;8.944;2024-03-07T15:55:13;8.40;1.00
29353;DHT22;16344;50.364;8.944;2024-03-07T16:00:12;8.40;1.00
29353;DHT22;16344;50.364;8.944;2024-03-07T16:03:09;8.30;1.00
29353;DHT22;16344;50.364;8.944;2024-03-07T16:05:37;8.40;1.00
29353;DHT22;16344;50.364;8.944;2024-03-07T16:08:08;8.30;1.00
29353;DHT22;16344;50.364;8.944;2024-03-07T16:10:37;8.30;1.00
29353;DHT22;16344;50.364;8.944;2024-03-07T16:13:06;8.30;1.00
29353;DHT22;16344;50.364;8.944;2024-03-07T16:15:33;8.40;1.00
29353;DHT22;16344;50.364;8.944;2024-03-07T16:17:59;8.40;1.00
29353;DHT22;16344;50.364;8.944;2024-03-07T16:20:25;8.40;1.00
29353;DHT22;16344;50.364;8.944;2024-03-07T16:22:51;8.30;1.00
29353;DHT22;16344;50.364;8.944;2024-03-07T16:25:19;8.40;1.00